createdAt,value
2023-01-23T00:03:01.918Z,5.77
2023-01-23T00:06:13.457Z,4.40
2023-01-23T00:09:19.904Z,4.00
2023-01-23T00:12:27.431Z,2.87
2023-01-23T00:15:34.215Z,4.63
2023-01-23T00:18:40.721Z,3.90
2023-01-23T00:21:47.123Z,3.73
2023-01-23T00:24:53.397Z,5.73
2023-01-23T00:28:01.599Z,3.67
2023-01-23T00:31:09.744Z,4.00
2023-01-23T00:34:16.909Z,3.47
2023-01-23T00:37:23.543Z,3.30
2023-01-23T00:40:29.966Z,3.93
2023-01-23T00:43:37.934Z,4.50
2023-01-23T00:46:44.400Z,3.93
2023-01-23T00:49:50.919Z,2.30
2023-01-23T00:52:57.138Z,3.00
2023-01-23T00:56:03.239Z,2.50
2023-01-23T00:59:10.911Z,2.27
2023-01-23T01:02:17.818Z,2.63
2023-01-23T01:05:24.110Z,2.20
2023-01-23T01:08:30.227Z,3.43
2023-01-23T01:11:36.696Z,2.60
2023-01-23T01:14:46.632Z,3.73
2023-01-23T01:17:53.871Z,2.80
2023-01-23T01:21:00.423Z,4.13
2023-01-23T01:24:07.778Z,2.97
2023-01-23T01:27:14.233Z,3.07
2023-01-23T01:30:22.227Z,2.90
2023-01-23T01:33:29.104Z,2.43
2023-01-23T01:36:35.534Z,1.80
2023-01-23T01:39:42.046Z,2.70
2023-01-23T01:42:51.403Z,2.57
2023-01-23T01:46:26.873Z,2.13
2023-01-23T01:49:35.564Z,2.43
2023-01-23T01:52:42.100Z,2.57
2023-01-23T01:55:49.577Z,2.40
2023-01-23T01:58:57.773Z,1.80
2023-01-23T02:02:11.077Z,2.40
2023-01-23T02:05:20.202Z,2.67
2023-01-23T02:08:36.647Z,2.77
2023-01-23T02:11:43.682Z,3.00
2023-01-23T02:14:50.010Z,2.90
2023-01-23T02:17:58.471Z,2.37
2023-01-23T02:21:08.668Z,2.20
2023-01-23T02:24:21.692Z,3.43
2023-01-23T02:27:29.484Z,2.93
2023-01-23T02:30:37.527Z,2.23
2023-01-23T02:33:50.099Z,1.87
2023-01-23T02:36:57.091Z,2.00
2023-01-23T02:40:03.898Z,2.23
2023-01-23T02:43:15.044Z,1.90
2023-01-23T02:46:21.715Z,2.10
2023-01-23T02:49:28.091Z,2.13
2023-01-23T02:52:34.352Z,2.93
2023-01-23T02:55:43.428Z,2.10
2023-01-23T02:59:08.737Z,1.87
2023-01-23T03:02:15.953Z,2.30
2023-01-23T03:05:22.463Z,1.87
2023-01-23T03:08:33.580Z,2.07
2023-01-23T03:11:41.906Z,1.80
2023-01-23T03:14:53.902Z,2.00
2023-01-23T03:18:00.327Z,1.93
2023-01-23T03:21:08.205Z,2.60
2023-01-23T03:24:15.136Z,2.03
2023-01-23T03:27:21.576Z,2.03
2023-01-23T03:30:28.253Z,1.77
2023-01-23T03:33:34.695Z,1.70
2023-01-23T03:36:41.367Z,2.23
2023-01-23T03:40:05.163Z,3.30
2023-01-23T03:43:11.973Z,1.70
2023-01-23T03:46:19.725Z,2.17
2023-01-23T03:49:26.116Z,2.10
2023-01-23T03:52:32.069Z,3.00
2023-01-23T03:55:38.623Z,2.33
2023-01-23T03:58:45.295Z,6.17
2023-01-23T04:01:53.118Z,8.13
2023-01-23T04:04:59.505Z,5.17
2023-01-23T04:08:06.204Z,2.20
2023-01-23T04:11:13.758Z,2.10
2023-01-23T04:14:20.141Z,8.43
2023-01-23T04:17:27.668Z,7.30
2023-01-23T04:20:33.921Z,5.87
2023-01-23T04:23:40.394Z,6.83
2023-01-23T04:26:47.012Z,14.70
2023-01-23T04:29:53.351Z,22.07
2023-01-23T04:33:01.291Z,24.47
2023-01-23T04:36:08.622Z,15.93
2023-01-23T04:39:14.631Z,11.93
2023-01-23T04:42:21.087Z,12.17
2023-01-23T04:45:27.109Z,9.83
2023-01-23T04:48:35.095Z,8.63
2023-01-23T04:51:41.103Z,11.03
2023-01-23T04:54:47.528Z,7.43
2023-01-23T04:57:53.805Z,8.03
2023-01-23T05:01:03.868Z,6.90
2023-01-23T05:04:11.418Z,5.63
2023-01-23T05:07:18.021Z,5.33
2023-01-23T05:10:24.425Z,4.03
2023-01-23T05:13:30.771Z,5.50
2023-01-23T05:16:37.115Z,6.63
2023-01-23T05:19:44.918Z,7.07
2023-01-23T05:22:54.646Z,6.57
2023-01-23T05:26:01.347Z,6.90
2023-01-23T05:29:10.657Z,7.47
2023-01-23T05:32:17.306Z,9.43
2023-01-23T05:35:25.095Z,12.57
2023-01-23T05:38:31.403Z,11.10
2023-01-23T05:41:37.922Z,7.97
2023-01-23T05:44:44.444Z,7.80
2023-01-23T05:47:50.794Z,6.30
2023-01-23T05:50:59.452Z,5.77
2023-01-23T05:54:06.059Z,14.57
2023-01-23T05:57:13.270Z,12.57
2023-01-23T06:00:20.834Z,11.33
2023-01-23T06:03:27.648Z,9.40
2023-01-23T06:06:35.405Z,10.43
2023-01-23T06:09:41.912Z,9.97
2023-01-23T06:12:48.054Z,11.13
2023-01-23T06:15:54.683Z,12.77
2023-01-23T06:19:01.111Z,13.87
2023-01-23T06:22:08.493Z,11.50
2023-01-23T06:25:15.061Z,10.27
2023-01-23T06:28:21.238Z,8.87
2023-01-23T06:31:27.440Z,7.97
2023-01-23T06:34:34.082Z,7.07
2023-01-23T06:37:43.429Z,7.53
2023-01-23T06:40:49.342Z,6.23
2023-01-23T06:43:55.721Z,7.33
2023-01-23T06:47:01.841Z,5.57
2023-01-23T06:50:10.033Z,5.83
2023-01-23T06:53:18.557Z,15.93
2023-01-23T06:56:24.795Z,10.10
2023-01-23T06:59:30.975Z,12.23
2023-01-23T07:02:39.880Z,9.37
2023-01-23T07:05:46.400Z,16.10
2023-01-23T07:08:54.429Z,11.10
2023-01-23T07:12:00.650Z,15.00
2023-01-23T07:15:07.814Z,15.93
2023-01-23T07:18:14.278Z,12.50
2023-01-23T07:21:20.917Z,11.03
2023-01-23T07:24:30.233Z,9.17
2023-01-23T07:27:36.840Z,7.07
2023-01-23T07:30:43.500Z,8.57
2023-01-23T07:33:50.038Z,8.80
2023-01-23T07:36:56.552Z,13.17
2023-01-23T07:40:04.261Z,10.00
2023-01-23T07:43:10.634Z,14.57
2023-01-23T07:46:17.386Z,10.53
2023-01-23T07:49:23.576Z,12.07
2023-01-23T07:52:29.887Z,17.97
2023-01-23T07:55:39.859Z,15.60
2023-01-23T07:58:46.404Z,19.23
2023-01-23T08:01:52.822Z,14.27
2023-01-23T08:04:59.300Z,12.13
2023-01-23T08:08:13.561Z,12.30
2023-01-23T08:11:21.549Z,14.07
2023-01-23T08:14:28.246Z,10.70
2023-01-23T08:17:35.011Z,10.67
2023-01-23T08:20:41.367Z,9.63
2023-01-23T08:23:47.951Z,12.43
2023-01-23T08:26:55.921Z,12.50
2023-01-23T08:30:02.731Z,12.90
2023-01-23T08:33:09.418Z,18.30
2023-01-23T08:36:16.052Z,17.17
2023-01-23T08:39:22.543Z,12.20
2023-01-23T08:42:30.726Z,12.17
2023-01-23T08:45:37.894Z,11.40
2023-01-23T08:48:44.727Z,10.40
2023-01-23T08:51:51.307Z,11.60
2023-01-23T08:54:57.670Z,12.03
2023-01-23T08:58:05.558Z,18.07
2023-01-23T09:01:13.827Z,10.03
2023-01-23T09:04:20.504Z,10.07
2023-01-23T09:07:26.749Z,8.13
2023-01-23T09:10:32.722Z,10.40
2023-01-23T09:13:40.714Z,7.80
2023-01-23T09:16:46.824Z,5.63
2023-01-23T09:19:53.060Z,7.43
2023-01-23T09:22:59.399Z,8.03
2023-01-23T09:26:07.083Z,7.33
2023-01-23T09:29:15.769Z,6.17
2023-01-23T09:32:22.145Z,6.53
2023-01-23T09:35:28.884Z,10.40
2023-01-23T09:38:37.543Z,7.27
2023-01-23T09:41:48.155Z,4.30
2023-01-23T09:44:58.885Z,8.67
2023-01-23T09:48:18.987Z,10.80
2023-01-23T09:51:30.344Z,12.10
2023-01-23T09:54:44.672Z,9.43
2023-01-23T09:57:54.902Z,5.83
2023-01-23T10:01:03.043Z,7.50
2023-01-23T10:04:13.187Z,6.97
2023-01-23T10:07:34.383Z,6.07
2023-01-23T10:10:58.713Z,5.33
2023-01-23T10:14:21.204Z,7.03
2023-01-23T10:17:38.805Z,8.63
2023-01-23T10:21:11.900Z,9.97
2023-01-23T10:24:40.161Z,11.37
2023-01-23T10:27:49.160Z,10.67
2023-01-23T10:31:00.685Z,7.87
2023-01-23T10:34:19.734Z,6.83
2023-01-23T10:37:44.436Z,6.93
2023-01-23T10:41:08.764Z,7.23
2023-01-23T10:44:17.971Z,6.57
2023-01-23T10:47:33.299Z,6.07
2023-01-23T10:50:41.903Z,7.73
2023-01-23T10:54:06.188Z,7.67
2023-01-23T10:57:24.919Z,9.13
2023-01-23T11:00:37.187Z,6.40
2023-01-23T11:03:46.940Z,7.43
2023-01-23T11:07:08.622Z,8.70
2023-01-23T11:10:22.998Z,8.27
2023-01-23T11:13:30.495Z,10.77
2023-01-23T11:16:37.153Z,12.33
2023-01-23T11:19:45.059Z,10.13
2023-01-23T11:23:02.723Z,8.80
2023-01-23T11:26:33.531Z,9.20
2023-01-23T11:30:02.460Z,10.23
2023-01-23T11:33:20.690Z,7.77
2023-01-23T11:36:56.023Z,7.43
2023-01-23T11:40:06.742Z,8.43
2023-01-23T11:43:16.096Z,6.87
2023-01-23T11:46:44.960Z,11.07
2023-01-23T11:50:12.832Z,16.23
2023-01-23T11:53:41.141Z,21.63
2023-01-23T11:57:09.267Z,13.70
2023-01-23T12:00:31.015Z,6.17
2023-01-23T12:04:13.809Z,8.37
2023-01-23T12:07:21.877Z,8.67
2023-01-23T12:10:36.649Z,9.00
2023-01-23T12:14:05.585Z,6.37
2023-01-23T12:17:24.577Z,9.47
2023-01-23T12:20:37.560Z,8.00
2023-01-23T12:24:01.314Z,5.87
2023-01-23T12:27:19.631Z,8.00
2023-01-23T12:30:57.060Z,6.90
2023-01-23T12:34:30.376Z,7.33
2023-01-23T12:37:48.772Z,7.37
2023-01-23T12:41:07.627Z,6.50
2023-01-23T12:44:18.463Z,7.10
2023-01-23T12:47:29.936Z,6.63
2023-01-23T12:50:46.170Z,7.30
2023-01-23T12:53:57.857Z,5.33
2023-01-23T12:57:07.226Z,5.43
2023-01-23T13:00:27.003Z,4.30
2023-01-23T13:04:02.562Z,7.33
2023-01-23T13:07:35.958Z,8.13
2023-01-23T13:11:15.254Z,10.27
2023-01-23T13:14:32.845Z,10.10
2023-01-23T13:17:48.791Z,9.20
2023-01-23T13:21:18.259Z,12.40
2023-01-23T13:24:50.386Z,6.43
2023-01-23T13:27:59.068Z,8.67
2023-01-23T13:31:06.458Z,21.27
2023-01-23T13:34:41.813Z,13.87
2023-01-23T13:37:54.706Z,10.13
2023-01-23T13:41:31.418Z,8.00
2023-01-23T13:44:42.062Z,14.57
2023-01-23T14:23:03.826Z,8.17
2023-01-23T14:26:23.962Z,7.83
2023-01-23T14:29:30.117Z,12.80
2023-01-23T14:32:38.778Z,14.23
2023-01-23T14:35:45.458Z,10.60
2023-01-23T14:38:52.081Z,8.43
2023-01-23T14:42:02.742Z,8.30
2023-01-23T14:45:13.513Z,8.80
2023-01-23T14:48:22.575Z,8.43
2023-01-23T14:51:29.769Z,7.10
2023-01-23T14:54:37.859Z,7.83
2023-01-23T14:57:44.576Z,8.27
2023-01-23T15:00:51.623Z,8.93
2023-01-23T15:04:02.024Z,9.57
2023-01-23T15:07:18.593Z,12.00
2023-01-23T15:10:27.159Z,10.03
2023-01-23T15:13:41.315Z,8.00
2023-01-23T15:16:47.612Z,9.97
2023-01-23T15:19:56.520Z,8.63
2023-01-23T15:23:23.831Z,7.33
2023-01-23T15:26:34.635Z,5.27
2023-01-23T15:29:41.198Z,7.10
2023-01-23T15:32:47.297Z,5.83
2023-01-23T15:36:03.816Z,6.10
2023-01-23T15:39:20.247Z,6.20
2023-01-23T15:42:29.994Z,9.97
2023-01-23T15:45:36.267Z,7.40
2023-01-23T15:48:42.306Z,8.03
2023-01-23T15:51:50.759Z,8.17
2023-01-23T15:54:59.970Z,11.17
2023-01-23T15:58:06.515Z,8.90
2023-01-23T16:01:12.607Z,6.53
2023-01-23T16:04:18.616Z,9.80
2023-01-23T16:07:32.719Z,10.67
2023-01-23T16:10:40.361Z,11.13
2023-01-23T16:13:46.527Z,8.40
2023-01-23T16:16:53.230Z,9.57
2023-01-23T16:19:59.548Z,9.40
2023-01-23T16:23:15.083Z,9.57
2023-01-23T16:26:24.251Z,9.83
2023-01-23T16:29:32.323Z,8.03
2023-01-23T16:32:39.005Z,8.27
2023-01-23T16:35:46.032Z,9.67
2023-01-23T16:38:57.198Z,9.63
2023-01-23T16:42:05.191Z,10.00
2023-01-23T16:45:16.638Z,8.43
2023-01-23T16:48:27.157Z,7.43
2023-01-23T16:51:35.899Z,8.47
2023-01-23T16:54:44.570Z,10.87
2023-01-23T16:57:54.458Z,14.80
2023-01-23T17:01:04.880Z,13.73
2023-01-23T17:04:15.274Z,9.40
2023-01-23T17:07:21.866Z,8.07
2023-01-23T17:10:41.296Z,11.70
2023-01-23T17:13:56.883Z,8.17
2023-01-23T17:17:07.566Z,13.00
2023-01-23T17:20:15.216Z,11.63
2023-01-23T17:23:21.903Z,10.67
2023-01-23T17:26:29.527Z,9.63
2023-01-23T17:29:36.324Z,8.77
2023-01-23T17:32:43.436Z,7.60
2023-01-23T17:35:50.705Z,9.67
2023-01-23T17:38:58.890Z,9.70
2023-01-23T17:42:06.990Z,8.03
2023-01-23T17:45:15.288Z,10.93
2023-01-23T17:48:28.199Z,11.40
2023-01-23T17:51:34.662Z,14.23
2023-01-23T17:54:41.019Z,13.00
2023-01-23T17:57:49.156Z,11.13
2023-01-23T18:00:56.289Z,9.80
2023-01-23T18:04:02.718Z,11.53
2023-01-23T18:07:11.076Z,9.97
2023-01-23T18:10:17.963Z,10.47
2023-01-23T18:13:33.665Z,10.63
2023-01-23T18:16:42.988Z,10.50
2023-01-23T18:19:51.741Z,8.87
2023-01-23T18:22:59.305Z,11.30
2023-01-23T18:26:37.589Z,10.20
2023-01-23T18:30:05.468Z,8.13
2023-01-23T18:33:48.149Z,8.67
2023-01-23T18:37:08.984Z,7.53
2023-01-23T18:40:21.462Z,8.83
2023-01-23T18:43:38.560Z,10.70
2023-01-23T18:46:46.934Z,11.33
2023-01-23T18:49:53.627Z,9.80
2023-01-23T18:53:13.052Z,10.97
2023-01-23T18:56:29.699Z,8.93
2023-01-23T18:59:49.461Z,13.20
2023-01-23T19:02:59.179Z,9.77
2023-01-23T19:06:13.056Z,12.97
2023-01-23T19:09:21.469Z,11.03
2023-01-23T19:12:32.495Z,10.03
2023-01-23T19:15:47.282Z,9.23
2023-01-23T19:19:15.225Z,9.20
2023-01-23T19:22:22.773Z,7.67
2023-01-23T19:25:29.936Z,15.23
2023-01-23T19:28:38.448Z,14.60
2023-01-23T19:32:02.913Z,13.93
2023-01-23T19:35:26.790Z,13.13
2023-01-23T19:38:33.067Z,11.67
2023-01-23T19:41:43.315Z,13.57
2023-01-23T19:44:49.475Z,12.77
2023-01-23T19:47:56.019Z,13.50
2023-01-23T19:51:04.106Z,15.50
2023-01-23T19:54:13.653Z,10.80
2023-01-23T19:57:19.932Z,9.33
2023-01-23T20:00:26.472Z,9.63
2023-01-23T20:03:32.915Z,7.93
2023-01-23T20:06:40.863Z,7.20
2023-01-23T20:09:47.375Z,6.90
2023-01-23T20:12:55.330Z,6.67
2023-01-23T20:16:07.394Z,6.87
2023-01-23T20:19:14.821Z,8.60
2023-01-23T20:22:22.690Z,5.97
2023-01-23T20:25:29.178Z,6.00
2023-01-23T20:28:35.211Z,4.50
2023-01-23T20:31:41.811Z,4.63
2023-01-23T20:34:48.024Z,4.57
2023-01-23T20:37:56.067Z,5.30
2023-01-23T20:41:07.011Z,4.73
2023-01-23T20:44:13.490Z,4.97
2023-01-23T20:47:19.672Z,5.00
2023-01-23T20:50:25.920Z,6.67
2023-01-23T20:53:35.124Z,4.40
2023-01-23T20:56:41.225Z,4.13
2023-01-23T20:59:47.798Z,5.23
2023-01-23T21:02:54.415Z,3.67
2023-01-23T21:06:00.685Z,4.70
2023-01-23T21:09:08.558Z,3.93
2023-01-23T21:12:15.818Z,4.83
2023-01-23T21:15:22.194Z,4.73
2023-01-23T21:18:29.290Z,5.57
2023-01-23T21:21:36.325Z,4.37
2023-01-23T21:24:44.078Z,4.63
2023-01-23T21:27:50.525Z,5.10
2023-01-23T21:30:57.004Z,3.80
2023-01-23T21:34:05.017Z,2.47
2023-01-23T21:37:12.135Z,4.20
2023-01-23T21:40:20.179Z,3.73
2023-01-23T21:43:26.588Z,3.43
2023-01-23T21:46:32.786Z,4.03
2023-01-23T21:49:39.020Z,4.10
2023-01-23T21:52:45.564Z,4.50
2023-01-23T21:55:54.394Z,3.97
2023-01-23T21:59:00.791Z,3.80
2023-01-23T22:02:07.264Z,4.77
2023-01-23T22:05:13.521Z,4.20
2023-01-23T22:08:19.607Z,4.53
2023-01-23T22:11:27.745Z,3.20
2023-01-23T22:14:33.872Z,3.87
2023-01-23T22:17:40.153Z,3.13
2023-01-23T22:20:46.468Z,4.30
2023-01-23T22:23:53.099Z,4.57
2023-01-23T22:27:00.815Z,3.00
2023-01-23T22:30:08.492Z,3.10
2023-01-23T22:33:14.892Z,3.57
2023-01-23T22:36:21.590Z,4.53
2023-01-23T22:39:28.010Z,4.73
2023-01-23T22:42:36.241Z,3.10
2023-01-23T22:45:42.642Z,3.40
2023-01-23T22:48:48.976Z,5.00
2023-01-23T22:51:55.278Z,3.37
2023-01-23T22:55:01.510Z,4.30
2023-01-23T22:58:11.548Z,2.33
2023-01-23T23:01:18.558Z,4.87
2023-01-23T23:04:25.026Z,3.30
2023-01-23T23:07:31.198Z,3.90
2023-01-23T23:10:37.559Z,3.40
2023-01-23T23:13:48.373Z,2.67
2023-01-23T23:16:54.763Z,3.03
2023-01-23T23:20:01.215Z,2.53
2023-01-23T23:23:07.453Z,4.80
2023-01-23T23:26:14.034Z,4.87
2023-01-23T23:29:21.671Z,6.07
2023-01-23T23:32:27.707Z,6.43
2023-01-23T23:35:35.124Z,6.07
2023-01-23T23:38:41.407Z,4.60
2023-01-23T23:41:47.920Z,5.60
2023-01-23T23:44:55.509Z,4.80
2023-01-23T23:48:02.369Z,4.80
2023-01-23T23:51:10.552Z,3.97
2023-01-23T23:54:16.615Z,3.33
2023-01-23T23:57:23.039Z,3.37
